createdAt,value
2019-02-12T16:12:26.400Z,36.54
2019-02-12T16:13:27.550Z,28.36
2019-02-12T16:14:28.352Z,27.33
2019-02-12T16:15:29.174Z,29.07
2019-02-12T16:16:30.463Z,32.78
2019-02-12T16:17:32.728Z,35.99
2019-02-12T16:18:33.569Z,38.07
2019-02-12T16:19:41.357Z,39.37
2019-02-12T16:20:42.192Z,43.08
2019-02-12T16:21:43.000Z,44.07
2019-02-12T16:22:43.849Z,45.42
2019-02-12T16:23:44.670Z,46.56
2019-02-12T16:24:45.496Z,48.01
2019-02-12T16:25:46.314Z,47.63
2019-02-12T16:26:47.159Z,48.00
2019-02-12T16:27:47.978Z,47.71
2019-02-12T16:28:48.791Z,49.30
2019-02-12T16:29:49.643Z,48.70
2019-02-12T16:30:50.456Z,49.52
2019-02-12T16:31:51.282Z,50.95
2019-02-12T16:32:52.100Z,48.58
2019-02-12T16:33:52.910Z,50.76
2019-02-12T16:34:53.759Z,51.30
2019-02-12T16:35:54.618Z,51.39
2019-02-12T16:36:55.414Z,52.28
2019-02-12T16:37:56.231Z,51.12
2019-02-12T16:38:57.053Z,51.42
2019-02-12T16:39:57.903Z,52.01
2019-02-12T16:40:58.720Z,51.63
2019-02-12T16:41:59.549Z,52.93
2019-02-12T16:43:00.361Z,52.18
2019-02-12T16:44:01.180Z,53.03
2019-02-12T16:45:02.237Z,53.63
2019-02-12T16:46:04.960Z,54.19
2019-02-12T16:47:05.795Z,52.31
2019-02-12T16:48:06.721Z,51.99
2019-02-12T16:49:07.553Z,52.94
2019-02-12T16:50:08.416Z,52.36
2019-02-12T16:51:09.248Z,53.05
2019-02-12T16:52:10.065Z,53.21
2019-02-12T16:53:10.879Z,52.87
2019-02-12T16:54:11.697Z,53.17
2019-02-12T16:55:12.585Z,53.38
2019-02-12T16:56:13.414Z,53.39
2019-02-12T16:57:14.250Z,53.62
2019-02-12T16:58:15.040Z,53.94
2019-02-12T16:59:15.870Z,53.85
2019-02-12T17:00:16.818Z,54.29
2019-02-12T17:01:17.632Z,54.11
2019-02-12T17:02:18.450Z,54.24
2019-02-12T17:03:22.032Z,53.46
2019-02-12T17:04:22.868Z,54.18
2019-02-12T17:05:23.710Z,53.98
2019-02-12T17:06:24.560Z,54.26
2019-02-12T17:07:25.449Z,53.93
2019-02-12T17:08:26.208Z,53.91
2019-02-12T17:09:27.111Z,54.26
2019-02-12T17:10:28.039Z,54.60
2019-02-12T17:11:28.918Z,54.40
2019-02-12T17:12:29.722Z,54.01
2019-02-12T17:13:30.599Z,53.74
2019-02-12T17:14:31.410Z,53.33
2019-02-12T17:15:32.377Z,52.79
2019-02-12T17:16:33.187Z,53.70
2019-02-12T17:17:34.012Z,53.78
2019-02-12T17:18:34.867Z,53.42
2019-02-12T17:19:35.679Z,53.11
2019-02-12T17:20:36.496Z,53.90
2019-02-12T17:21:37.315Z,53.43
2019-02-12T17:22:38.130Z,53.87
2019-02-12T17:23:39.100Z,54.36
2019-02-12T17:24:39.906Z,53.52
2019-02-12T17:25:40.726Z,53.30
2019-02-12T17:26:41.548Z,53.96
2019-02-12T17:27:42.362Z,53.72
2019-02-12T17:28:46.204Z,54.09
2019-02-12T17:29:47.026Z,53.89
2019-02-12T17:30:47.858Z,55.20
2019-02-12T17:31:48.672Z,54.25
2019-02-12T17:32:49.532Z,52.55
2019-02-12T17:33:50.354Z,53.46
2019-02-12T17:34:51.193Z,54.21
2019-02-12T17:35:52.032Z,52.61
2019-02-12T17:36:52.857Z,51.77
2019-02-12T17:38:02.079Z,51.32
2019-02-12T17:39:04.097Z,50.84
2019-02-12T17:40:06.720Z,51.47
2019-02-12T17:41:07.543Z,51.52
2019-02-12T17:42:08.383Z,51.82
2019-02-12T17:43:10.244Z,51.89
2019-02-12T17:44:11.126Z,51.86
2019-02-12T17:45:12.639Z,51.76
2019-02-12T17:46:13.456Z,52.38
2019-02-12T17:47:14.271Z,84.08
2019-02-12T17:48:34.370Z,45.50
2019-02-12T17:49:35.190Z,35.22
2019-02-12T17:50:36.006Z,30.88
2019-02-12T17:51:36.818Z,37.70
2019-02-12T17:52:37.641Z,32.18
2019-02-12T17:53:38.500Z,35.41
2019-02-12T17:59:45.146Z,33.50
2019-02-12T18:00:45.971Z,27.31
2019-02-12T18:01:46.786Z,30.16
2019-02-12T18:02:47.602Z,32.48
2019-02-12T18:04:27.691Z,48.16
2019-02-12T18:05:28.507Z,27.53
2019-02-12T18:06:29.328Z,31.27
2019-02-12T18:07:30.143Z,33.36
2019-02-12T18:08:30.951Z,33.84
2019-02-12T18:09:31.900Z,34.10
2019-02-12T18:10:32.728Z,33.82
2019-02-12T18:11:33.526Z,31.64
2019-02-12T18:12:34.356Z,27.96
2019-02-12T18:13:35.180Z,26.73
2019-02-12T18:14:36.007Z,26.66
2019-02-12T18:15:36.840Z,27.45
2019-02-12T18:16:37.669Z,28.66
2019-02-12T18:17:38.476Z,29.28
2019-02-12T18:18:39.295Z,29.49
2019-02-12T18:19:40.131Z,29.41
2019-02-12T18:20:40.958Z,29.20
2019-02-12T18:21:41.791Z,28.95
2019-02-12T18:22:42.605Z,28.60
2019-02-12T18:23:43.448Z,28.32
2019-02-12T18:24:44.267Z,28.08
2019-02-12T18:25:45.190Z,27.83
2019-02-12T18:26:46.023Z,27.62
2019-02-12T18:27:46.843Z,27.49
2019-02-12T18:28:47.998Z,27.35
2019-02-12T18:29:48.746Z,27.18
2019-02-12T18:30:49.566Z,27.05
2019-02-12T18:31:50.387Z,27.00
2019-02-12T18:32:51.217Z,26.93
2019-02-12T18:33:52.108Z,26.86
2019-02-12T18:34:52.921Z,26.99
2019-02-12T18:35:53.748Z,26.95
2019-02-12T18:36:54.563Z,26.68
2019-02-12T18:38:01.946Z,26.50
2019-02-12T18:39:03.872Z,26.41
2019-02-12T18:40:06.596Z,26.56
2019-02-12T18:41:07.427Z,26.69
2019-02-12T18:42:08.250Z,26.79
2019-02-12T18:43:09.067Z,26.79
2019-02-12T18:44:09.923Z,26.83
2019-02-12T18:45:15.316Z,26.81
2019-02-12T18:46:16.131Z,26.84
2019-02-12T18:47:16.949Z,26.99
2019-02-12T18:48:17.802Z,27.06
2019-02-12T18:49:18.599Z,27.14
2019-02-12T18:50:19.468Z,27.20
2019-02-12T18:51:20.288Z,27.21
2019-02-12T18:52:21.107Z,26.93
2019-02-12T18:53:21.924Z,26.84
2019-02-12T18:54:22.748Z,26.65
2019-02-12T18:55:23.603Z,26.60
2019-02-12T18:56:26.328Z,26.55
2019-02-12T18:57:27.400Z,26.42
2019-02-12T18:58:28.210Z,26.30
2019-02-12T18:59:29.031Z,25.81
2019-02-12T19:00:29.862Z,25.77
2019-02-12T19:01:30.684Z,25.68
2019-02-12T19:02:31.645Z,25.64
2019-02-12T19:03:32.710Z,25.45
2019-02-12T19:04:33.635Z,25.26
2019-02-12T19:05:34.467Z,25.26
2019-02-12T19:06:35.302Z,25.23
2019-02-12T19:07:36.121Z,25.21
2019-02-12T19:08:37.097Z,25.16
2019-02-12T19:09:37.908Z,25.04
2019-02-12T19:10:38.716Z,24.95
2019-02-12T19:11:48.435Z,24.83
2019-02-12T19:12:42.142Z,24.74
2019-02-12T19:13:42.958Z,24.77
2019-02-12T19:14:43.790Z,24.74
2019-02-12T19:15:44.607Z,24.69
2019-02-12T19:16:45.471Z,24.61
2019-02-12T19:17:48.340Z,24.44
2019-02-12T19:18:49.450Z,24.40
2019-02-12T19:19:50.197Z,24.38
2019-02-12T19:20:51.010Z,24.28
2019-02-12T19:21:51.880Z,24.23
2019-02-12T19:22:52.706Z,24.22
2019-02-12T19:23:53.611Z,24.22
2019-02-12T19:24:54.439Z,24.17
2019-02-12T19:25:55.259Z,24.14
2019-02-12T19:26:56.129Z,24.19
2019-02-12T19:27:56.951Z,24.18
2019-02-12T19:28:57.759Z,24.08
2019-02-12T19:29:58.595Z,24.10
2019-02-12T19:30:59.404Z,22.08
2019-02-12T19:32:00.266Z,20.75
2019-02-12T19:33:01.080Z,20.35
2019-02-12T19:34:01.955Z,20.46
2019-02-12T19:35:04.179Z,21.29
2019-02-12T19:36:05.007Z,22.37
2019-02-12T19:37:05.834Z,23.13
2019-02-12T19:38:06.733Z,23.36
2019-02-12T19:39:07.639Z,23.60
2019-02-12T19:40:09.171Z,23.74
2019-02-12T19:41:09.989Z,23.74
2019-02-12T19:42:10.813Z,23.65
2019-02-12T19:43:11.656Z,23.49
2019-02-12T19:44:12.499Z,23.36
2019-02-12T19:45:14.318Z,23.29
2019-02-12T19:46:15.248Z,23.26
2019-02-12T19:47:16.076Z,23.39
2019-02-12T19:48:16.989Z,23.59
2019-02-12T19:49:18.013Z,23.67
2019-02-12T19:50:18.848Z,23.58
2019-02-12T19:51:19.696Z,23.45
2019-02-12T19:52:20.517Z,23.66
2019-02-12T19:53:21.382Z,23.72
2019-02-12T19:54:22.196Z,23.74
2019-02-12T19:55:23.015Z,23.80
2019-02-12T19:56:23.827Z,23.90
2019-02-12T19:57:24.647Z,23.90
2019-02-12T19:58:25.503Z,23.93
2019-02-12T19:59:26.335Z,24.00
2019-02-12T20:00:27.161Z,24.15
2019-02-12T20:01:27.971Z,24.21
2019-02-12T20:02:28.783Z,24.34
2019-02-12T20:03:30.152Z,24.32
2019-02-12T20:04:31.043Z,24.21
2019-02-12T20:05:31.979Z,24.34
2019-02-12T20:06:32.839Z,24.41
2019-02-12T20:07:33.660Z,24.33
2019-02-12T20:08:34.518Z,24.30
2019-02-12T20:09:35.324Z,24.18
2019-02-12T20:10:36.139Z,23.91
2019-02-12T20:11:36.955Z,23.69
2019-02-12T20:12:37.769Z,23.60
2019-02-12T20:13:38.632Z,23.54
2019-02-12T20:14:39.453Z,23.50
2019-02-12T20:15:40.259Z,23.58
2019-02-12T20:16:41.071Z,23.64
2019-02-12T20:17:41.891Z,23.71
2019-02-12T20:18:42.721Z,23.76
2019-02-12T20:19:45.571Z,23.81
2019-02-12T20:20:46.471Z,23.87
2019-02-12T20:21:47.343Z,23.92
2019-02-12T20:22:48.199Z,23.97
2019-02-12T20:23:49.011Z,24.46
2019-02-12T20:24:49.836Z,22.05
2019-02-12T20:25:50.656Z,20.48
2019-02-12T20:26:51.479Z,20.55
2019-02-12T20:27:52.336Z,20.92
2019-02-12T20:28:53.139Z,21.53
2019-02-12T20:29:53.963Z,22.49
2019-02-12T20:30:54.803Z,23.09
2019-02-12T20:31:55.624Z,23.48
2019-02-12T20:32:56.505Z,23.68
2019-02-12T20:33:57.359Z,23.73
2019-02-12T20:34:58.235Z,23.66
2019-02-12T20:35:59.655Z,23.64
2019-02-12T20:37:00.489Z,23.58
2019-02-12T20:38:01.442Z,23.54
2019-02-12T20:39:02.469Z,23.69
2019-02-12T20:40:04.983Z,23.63
2019-02-12T20:41:05.801Z,23.44
2019-02-12T20:42:06.612Z,23.34
2019-02-12T20:43:07.985Z,23.24
2019-02-12T20:44:08.810Z,23.17
2019-02-12T20:45:10.815Z,23.11
2019-02-12T20:46:11.639Z,23.05
2019-02-12T20:47:12.456Z,23.03
2019-02-12T20:48:13.319Z,23.13
2019-02-12T20:49:14.140Z,23.24
2019-02-12T20:50:19.318Z,23.23
2019-02-12T20:51:20.163Z,23.18
2019-02-12T20:52:20.986Z,23.15
2019-02-12T20:53:21.840Z,23.11
2019-02-12T20:54:23.055Z,23.08
2019-02-12T20:55:23.883Z,23.04
2019-02-12T20:56:24.739Z,22.98
2019-02-12T20:57:25.568Z,22.96
2019-02-12T20:58:26.425Z,22.95
2019-02-12T20:59:27.295Z,22.91
2019-02-12T21:00:28.063Z,22.96
2019-02-12T21:01:28.885Z,23.24
2019-02-12T21:02:29.695Z,21.31
2019-02-12T21:03:30.523Z,20.15
2019-02-12T21:04:31.385Z,20.34
2019-02-12T21:05:32.359Z,20.94
2019-02-12T21:06:33.284Z,21.85
2019-02-12T21:07:34.095Z,22.61
2019-02-12T21:08:34.912Z,23.28
2019-02-12T21:09:35.763Z,23.59
2019-02-12T21:10:36.584Z,23.64
2019-02-12T21:11:37.399Z,23.64
2019-02-12T21:12:38.224Z,23.58
2019-02-12T21:13:39.043Z,23.51
2019-02-12T21:14:39.903Z,23.35
2019-02-12T21:15:40.715Z,23.23
2019-02-12T21:16:43.471Z,23.19
2019-02-12T21:17:44.307Z,23.29
2019-02-12T21:18:45.117Z,23.19
2019-02-12T21:19:45.944Z,23.15
2019-02-12T21:20:46.798Z,23.16
2019-02-12T21:21:47.611Z,23.10
2019-02-12T21:22:48.524Z,23.06
2019-02-12T21:23:49.287Z,23.08
2019-02-12T21:24:50.101Z,23.24
2019-02-12T21:25:50.979Z,23.23
2019-02-12T21:26:51.807Z,23.10
2019-02-12T21:27:52.624Z,23.11
2019-02-12T21:28:53.450Z,23.12
2019-02-12T21:29:54.275Z,23.16
2019-02-12T21:30:55.145Z,23.08
2019-02-12T21:31:55.927Z,23.03
2019-02-12T21:32:56.739Z,22.86
2019-02-12T21:33:57.559Z,22.91
2019-02-12T21:34:58.424Z,22.89
2019-02-12T21:35:59.245Z,22.81
2019-02-12T21:37:00.080Z,22.77
2019-02-12T21:38:01.491Z,22.68
2019-02-12T21:39:02.907Z,22.81
2019-02-12T21:40:05.664Z,22.74
2019-02-12T21:41:06.483Z,22.65
2019-02-12T21:42:07.295Z,22.60
2019-02-12T21:43:08.124Z,22.64
2019-02-12T21:44:08.944Z,22.67
2019-02-12T21:45:10.287Z,22.73
2019-02-12T21:46:11.157Z,22.67
2019-02-12T21:47:11.930Z,22.60
2019-02-12T21:48:12.841Z,22.51
2019-02-12T21:49:13.847Z,22.47
2019-02-12T21:50:14.700Z,22.54
2019-02-12T21:51:15.527Z,22.47
2019-02-12T21:52:16.369Z,22.58
2019-02-12T21:53:17.183Z,22.59
2019-02-12T21:54:18.000Z,22.60
2019-02-12T21:55:20.359Z,22.67
2019-02-12T21:56:21.179Z,22.65
2019-02-12T21:57:21.999Z,22.67
2019-02-12T21:58:22.861Z,22.92
2019-02-12T21:59:23.675Z,23.11
2019-02-12T22:00:24.536Z,23.16
2019-02-12T22:01:25.356Z,23.13
2019-02-12T22:02:27.908Z,23.05
2019-02-12T22:03:28.721Z,23.02
2019-02-12T22:04:34.371Z,22.99
2019-02-12T22:05:35.228Z,22.95
2019-02-12T22:06:37.907Z,22.99
2019-02-12T22:07:38.726Z,23.07
2019-02-12T22:08:39.539Z,23.00
2019-02-12T22:09:40.351Z,22.47
2019-02-12T22:10:46.436Z,21.87
2019-02-12T22:11:45.224Z,21.48
2019-02-12T22:12:46.164Z,21.32
2019-02-12T22:13:46.958Z,21.34
2019-02-12T22:14:47.783Z,21.55
2019-02-12T22:15:48.643Z,21.89
2019-02-12T22:16:49.465Z,22.06
2019-02-12T22:17:50.288Z,22.28
2019-02-12T22:18:52.513Z,22.33
2019-02-12T22:19:53.329Z,22.44
2019-02-12T22:20:54.196Z,22.51
2019-02-12T22:21:55.007Z,22.22
2019-02-12T22:22:55.831Z,21.62
2019-02-12T22:23:56.644Z,21.95
2019-02-12T22:24:57.459Z,22.05
2019-02-12T22:25:58.287Z,22.05
2019-02-12T22:27:00.534Z,22.07
2019-02-12T22:28:01.351Z,21.98
2019-02-12T22:29:02.477Z,21.86
2019-02-12T22:30:05.167Z,21.87
2019-02-12T22:31:05.995Z,21.90
2019-02-12T22:32:06.820Z,21.83
2019-02-12T22:33:07.640Z,21.77
2019-02-12T22:34:08.465Z,21.78
2019-02-12T22:35:09.295Z,21.79
2019-02-12T22:36:10.120Z,21.81
2019-02-12T22:37:10.944Z,21.84
2019-02-12T22:38:11.807Z,21.81
2019-02-12T22:39:12.631Z,21.74
2019-02-12T22:40:14.255Z,21.71
2019-02-12T22:41:15.075Z,21.59
2019-02-12T22:42:15.892Z,21.70
2019-02-12T22:43:16.748Z,21.69
2019-02-12T22:44:17.572Z,21.65
2019-02-12T22:45:23.071Z,21.59
2019-02-12T22:46:23.891Z,21.54
2019-02-12T22:47:24.709Z,21.56
2019-02-12T22:48:25.552Z,21.59
2019-02-12T22:49:26.371Z,21.67
2019-02-12T22:50:27.196Z,21.67
2019-02-12T22:51:28.031Z,21.72
2019-02-12T22:52:28.851Z,21.77
2019-02-12T22:53:29.706Z,21.70
2019-02-12T22:54:30.520Z,21.68
2019-02-12T22:55:31.452Z,21.75
2019-02-12T22:56:32.574Z,21.67
2019-02-12T22:57:33.400Z,21.65
2019-02-12T22:58:34.261Z,21.69
2019-02-12T22:59:35.084Z,21.62
2019-02-12T23:00:48.247Z,21.56
2019-02-12T23:01:49.060Z,21.56
2019-02-12T23:02:49.888Z,21.57
2019-02-12T23:03:50.747Z,21.54
2019-02-12T23:04:51.579Z,21.57
2019-02-12T23:05:52.464Z,21.58
2019-02-12T23:06:53.596Z,21.57
2019-02-12T23:07:54.428Z,21.58
2019-02-12T23:08:55.383Z,21.54
2019-02-12T23:09:56.206Z,21.47
2019-02-12T23:10:57.023Z,21.51
2019-02-12T23:11:57.835Z,21.48
2019-02-12T23:12:58.655Z,21.47
2019-02-12T23:13:59.513Z,21.45
2019-02-12T23:15:00.332Z,21.45
2019-02-12T23:16:01.151Z,21.48
2019-02-12T23:17:03.346Z,21.43
2019-02-12T23:18:04.387Z,21.46
2019-02-12T23:19:05.242Z,21.40
2019-02-12T23:20:06.067Z,21.42
2019-02-12T23:21:06.887Z,21.44
2019-02-12T23:22:08.149Z,21.37
2019-02-12T23:23:08.915Z,21.33
2019-02-12T23:24:09.748Z,21.39
2019-02-12T23:25:10.729Z,21.37
2019-02-12T23:26:11.507Z,21.41
2019-02-12T23:27:12.331Z,21.44
2019-02-12T23:28:13.148Z,21.49
2019-02-12T23:29:13.960Z,21.53
2019-02-12T23:30:14.942Z,21.61
2019-02-12T23:31:15.771Z,21.57
2019-02-12T23:32:16.791Z,21.65
2019-02-12T23:33:17.619Z,21.64
2019-02-12T23:34:18.479Z,21.63
2019-02-12T23:35:19.295Z,21.67
2019-02-12T23:36:20.124Z,21.73
2019-02-12T23:37:21.035Z,21.75
2019-02-12T23:38:21.987Z,21.87
2019-02-12T23:39:22.842Z,21.87
2019-02-12T23:40:23.651Z,21.90
2019-02-12T23:41:24.470Z,21.85
2019-02-12T23:42:25.286Z,21.86
2019-02-12T23:43:26.103Z,21.92
2019-02-12T23:44:27.018Z,21.93
2019-02-12T23:45:28.180Z,21.85
2019-02-12T23:46:28.999Z,21.91
2019-02-12T23:47:29.816Z,21.93
2019-02-12T23:48:30.663Z,21.91
2019-02-12T23:49:31.482Z,21.90
2019-02-12T23:50:32.704Z,22.06
2019-02-12T23:51:33.516Z,22.01
2019-02-12T23:52:34.334Z,22.06
2019-02-12T23:53:35.198Z,22.05
2019-02-12T23:54:36.077Z,22.09
2019-02-12T23:55:41.498Z,22.06
2019-02-12T23:56:42.715Z,22.17
2019-02-12T23:57:43.536Z,22.14
2019-02-12T23:58:44.386Z,22.18
2019-02-12T23:59:45.199Z,22.15
